Time;durP1;ratioP1;P1;durP2;ratioP2;P2;SDS_P1;SDS_P2;PMS_P1;PMS_P2;Temp;Humidity;BMP_temperature;BMP_pressure;BME280_temperature;BME280_humidity;BME280_pressure;Samples;Min_cycle;Max_cycle;Signal;HPM_P1;HPM_P2
2022/10/03 00:01:21;;;;;;;;;;;12.50;99.10;;;;;;6119826;23;19917;-80
2022/10/03 00:03:59;;;;;;;;;;;12.50;98.80;;;;;;6120282;23;19921;-80
2022/10/03 00:06:32;;;;;;;;;;;12.60;98.50;;;;;;6120137;23;19923;-80
2022/10/03 00:08:59;;;;;;;;;;;12.50;98.20;;;;;;6120963;23;19921;-80
2022/10/03 00:11:28;;;;;;;;;;;12.60;99.30;;;;;;6120071;23;19918;-80
2022/10/03 00:14:03;;;;;;;;;;;12.40;99.40;;;;;;6120342;23;19917;-80
2022/10/03 00:16:43;;;;;;;;;;;12.40;99.00;;;;;;6120271;23;19921;-80
2022/10/03 00:19:19;;;;;;;;;;;12.40;98.90;;;;;;6119496;23;19916;-80
2022/10/03 00:21:52;;;;;;;;;;;12.30;99.40;;;;;;6120639;23;19964;-80
2022/10/03 00:24:31;;;;;;;;;;;12.30;99.00;;;;;;6118856;23;19940;-80
2022/10/03 00:26:57;;;;;;;;;;;12.30;98.80;;;;;;6120429;23;19924;-80
2022/10/03 00:29:34;;;;;;;;;;;12.20;99.10;;;;;;6119546;23;19923;-80
2022/10/03 00:32:04;;;;;;;;;;;12.10;99.20;;;;;;6097869;23;20257;-80
2022/10/03 00:34:36;;;;;;;;;;;12.10;99.50;;;;;;6120126;23;20231;-80
2022/10/03 00:37:18;;;;;;;;;;;12.10;99.80;;;;;;6120546;23;19917;-80
2022/10/03 00:40:15;;;;;;;;;;;12.00;99.90;;;;;;6096556;23;20295;-80
2022/10/03 00:42:47;;;;;;;;;;;12.10;99.90;;;;;;6083432;23;20421;-80
2022/10/03 00:45:27;;;;;;;;;;;11.80;98.90;;;;;;6120274;23;19948;-80
2022/10/03 00:48:02;;;;;;;;;;;11.80;99.30;;;;;;6120108;23;19924;-80
2022/10/03 00:50:35;;;;;;;;;;;11.70;99.70;;;;;;6119500;23;19956;-80
2022/10/03 00:53:12;;;;;;;;;;;11.60;99.90;;;;;;6120298;23;20261;-80
2022/10/03 00:55:47;;;;;;;;;;;11.50;99.90;;;;;;6119457;23;19921;-80
2022/10/03 00:58:21;;;;;;;;;;;11.50;99.90;;;;;;6119942;23;19995;-80
2022/10/03 01:00:51;;;;;;;;;;;11.60;99.90;;;;;;6119848;23;19956;-79
2022/10/03 01:03:27;;;;;;;;;;;11.60;99.90;;;;;;6120210;23;19980;-80
2022/10/03 01:06:03;;;;;;;;;;;11.70;99.90;;;;;;6119179;23;19984;-80
2022/10/03 01:08:32;;;;;;;;;;;11.70;99.90;;;;;;6118859;23;19921;-79
2022/10/03 01:11:05;;;;;;;;;;;11.70;99.90;;;;;;6097234;23;19917;-80
2022/10/03 01:13:51;;;;;;;;;;;11.90;99.90;;;;;;6119300;23;20000;-79
2022/10/03 01:16:28;;;;;;;;;;;11.90;99.90;;;;;;6119869;23;19943;-79
2022/10/03 01:18:58;;;;;;;;;;;12.00;99.90;;;;;;6096315;23;19962;-78
2022/10/03 01:21:25;;;;;;;;;;;12.00;99.90;;;;;;6119661;23;19917;-79
2022/10/03 01:24:10;;;;;;;;;;;12.00;99.90;;;;;;6119074;23;19917;-79
2022/10/03 01:27:15;;;;;;;;;;;11.90;99.90;;;;;;6118880;23;19921;-79
2022/10/03 01:32:37;;;;;;;;;;;11.80;99.90;;;;;;6036744;23;20294;-79
2022/10/03 01:35:10;;;;;;;;;;;11.80;99.90;;;;;;6075678;23;20339;-80
2022/10/03 01:37:43;;;;;;;;;;;11.80;99.90;;;;;;6119753;23;19917;-79
2022/10/03 01:40:18;;;;;;;;;;;11.80;99.90;;;;;;6118968;23;19928;-79
2022/10/03 01:43:04;;;;;;;;;;;11.70;99.90;;;;;;6119106;23;19992;-80
2022/10/03 01:45:31;;;;;;;;;;;11.80;99.90;;;;;;6119479;23;20007;-80
2022/10/03 01:47:58;;;;;;;;;;;11.70;99.90;;;;;;6118756;23;19917;-79
2022/10/03 01:50:45;;;;;;;;;;;11.70;99.90;;;;;;6119714;23;20290;-80
2022/10/03 01:53:22;;;;;;;;;;;11.70;99.90;;;;;;6119022;23;19918;-80
2022/10/03 01:56:03;;;;;;;;;;;11.70;99.90;;;;;;6119063;23;19921;-79
2022/10/03 01:58:39;;;;;;;;;;;11.70;99.90;;;;;;6119169;23;19925;-79
2022/10/03 02:01:28;;;;;;;;;;;11.70;99.90;;;;;;6118655;23;19917;-79
2022/10/03 02:04:13;;;;;;;;;;;11.60;99.90;;;;;;6086493;23;20263;-79
2022/10/03 02:06:59;;;;;;;;;;;11.50;99.90;;;;;;6096741;23;19947;-79
2022/10/03 02:09:35;;;;;;;;;;;11.40;99.90;;;;;;6118763;23;20012;-79
2022/10/03 02:12:02;;;;;;;;;;;11.20;99.90;;;;;;6118481;23;19950;-79
2022/10/03 02:14:28;;;;;;;;;;;11.10;99.90;;;;;;6119590;23;19988;-79
2022/10/03 02:16:57;;;;;;;;;;;11.10;99.90;;;;;;6119874;23;19949;-80
2022/10/03 02:19:28;;;;;;;;;;;11.10;99.90;;;;;;6118138;23;20264;-80
2022/10/03 02:21:56;;;;;;;;;;;11.00;99.90;;;;;;6118966;23;19955;-79
2022/10/03 02:24:31;;;;;;;;;;;11.00;99.90;;;;;;6094293;23;19940;-79
2022/10/03 02:27:10;;;;;;;;;;;11.00;99.90;;;;;;6119544;23;19988;-79
2022/10/03 02:29:55;;;;;;;;;;;10.90;99.90;;;;;;6118506;23;19945;-79
2022/10/03 02:32:40;;;;;;;;;;;10.80;99.90;;;;;;6118579;23;20294;-79
2022/10/03 02:35:09;;;;;;;;;;;10.70;99.90;;;;;;6119461;23;20249;-80
2022/10/03 02:37:48;;;;;;;;;;;10.70;99.90;;;;;;6118097;23;19917;-80
2022/10/03 02:40:18;;;;;;;;;;;10.80;99.90;;;;;;6118141;23;19921;-79
2022/10/03 02:42:56;;;;;;;;;;;10.90;99.90;;;;;;6096045;23;20334;-79
2022/10/03 02:45:32;;;;;;;;;;;10.80;99.90;;;;;;6118548;23;19923;-80
2022/10/03 02:48:15;;;;;;;;;;;10.80;99.90;;;;;;6118995;23;19917;-79
2022/10/03 02:51:16;;;;;;;;;;;10.80;99.90;;;;;;6115100;23;20235;-80
2022/10/03 02:54:02;;;;;;;;;;;10.80;99.90;;;;;;6118449;23;19917;-80
2022/10/03 02:56:31;;;;;;;;;;;10.90;99.90;;;;;;6118837;23;19917;-80
2022/10/03 02:59:17;;;;;;;;;;;10.90;99.90;;;;;;6117983;23;19924;-80
2022/10/03 03:02:06;;;;;;;;;;;10.90;99.90;;;;;;6118383;23;19957;-78
2022/10/03 03:04:36;;;;;;;;;;;11.00;99.90;;;;;;6118311;23;19917;-79
2022/10/03 03:07:14;;;;;;;;;;;11.10;99.90;;;;;;6118145;23;19992;-78
2022/10/03 03:09:44;;;;;;;;;;;11.10;99.90;;;;;;6117919;23;19996;-78
2022/10/03 03:12:10;;;;;;;;;;;11.10;99.90;;;;;;6095677;23;19988;-79
2022/10/03 03:14:37;;;;;;;;;;;11.10;99.90;;;;;;6118674;23;20228;-78
2022/10/03 03:17:13;;;;;;;;;;;11.10;99.90;;;;;;6117908;23;19987;-78
2022/10/03 03:20:09;;;;;;;;;;;11.10;99.90;;;;;;6118028;23;19921;-79
2022/10/03 03:22:49;;;;;;;;;;;10.90;99.90;;;;;;6082085;23;19939;-78
2022/10/03 03:25:16;;;;;;;;;;;10.90;99.90;;;;;;6117763;23;19925;-78
2022/10/03 03:28:01;;;;;;;;;;;10.90;99.90;;;;;;6118543;23;20299;-78
2022/10/03 03:30:37;;;;;;;;;;;11.00;99.90;;;;;;6118368;23;19925;-78
2022/10/03 03:33:06;;;;;;;;;;;11.00;99.90;;;;;;6096434;23;19996;-79
2022/10/03 03:35:46;;;;;;;;;;;11.10;99.90;;;;;;6122241;23;19941;-78
2022/10/03 03:38:36;;;;;;;;;;;11.10;99.90;;;;;;6120923;23;19924;-78
2022/10/03 03:41:17;;;;;;;;;;;11.10;99.90;;;;;;6098477;23;19924;-78
2022/10/03 03:44:10;;;;;;;;;;;11.30;99.90;;;;;;6121339;23;19921;-78
2022/10/03 03:46:43;;;;;;;;;;;11.30;99.90;;;;;;6093864;23;19923;-78
2022/10/03 03:49:29;;;;;;;;;;;11.40;99.90;;;;;;6121680;23;19992;-79
2022/10/03 03:52:15;;;;;;;;;;;11.40;99.90;;;;;;6121428;23;20012;-79
2022/10/03 03:54:44;;;;;;;;;;;11.40;99.90;;;;;;6120633;23;19995;-79
2022/10/03 03:57:40;;;;;;;;;;;11.30;99.90;;;;;;6121773;23;19937;-78
2022/10/03 04:00:17;;;;;;;;;;;11.30;99.80;;;;;;6078983;23;19917;-79
2022/10/03 04:02:43;;;;;;;;;;;11.60;97.60;;;;;;6120895;23;19921;-79
2022/10/03 04:05:11;;;;;;;;;;;11.70;97.20;;;;;;6121662;23;19917;-79
2022/10/03 04:07:51;;;;;;;;;;;11.70;97.20;;;;;;6121466;23;19988;-78
2022/10/03 04:10:25;;;;;;;;;;;11.70;97.60;;;;;;6096914;23;19953;-78
2022/10/03 04:13:00;;;;;;;;;;;11.60;99.00;;;;;;6121535;23;20253;-78
2022/10/03 04:15:27;;;;;;;;;;;11.50;99.90;;;;;;6121005;23;20257;-78
2022/10/03 04:20:48;;;;;;;;;;;11.50;99.90;;;;;;6098369;23;19944;-78
2022/10/03 04:23:33;;;;;;;;;;;11.50;99.90;;;;;;6120879;23;20356;-79
2022/10/03 04:26:06;;;;;;;;;;;11.50;99.90;;;;;;6121258;23;19925;-78
2022/10/03 04:28:44;;;;;;;;;;;11.60;99.90;;;;;;6095899;23;19984;-78
2022/10/03 04:31:27;;;;;;;;;;;11.60;98.80;;;;;;6121655;23;20363;-78
2022/10/03 04:34:04;;;;;;;;;;;11.80;97.90;;;;;;6120610;23;19936;-78
2022/10/03 04:36:46;;;;;;;;;;;12.00;94.20;;;;;;6119878;23;20287;-79
2022/10/03 04:39:22;;;;;;;;;;;12.30;91.30;;;;;;6120820;23;20249;-79
2022/10/03 04:41:57;;;;;;;;;;;12.90;81.40;;;;;;6120201;23;19917;-78
2022/10/03 04:44:30;;;;;;;;;;;13.50;74.60;;;;;;6119638;23;19927;-79
2022/10/03 04:47:15;;;;;;;;;;;14.10;71.30;;;;;;6119448;23;19951;-78
2022/10/03 04:49:46;;;;;;;;;;;14.70;67.60;;;;;;6119089;23;19940;-78
2022/10/03 04:52:27;;;;;;;;;;;15.20;64.80;;;;;;6119368;23;19993;-78
2022/10/03 04:55:00;;;;;;;;;;;15.50;64.20;;;;;;6118817;23;19995;-78
2022/10/03 04:57:34;;;;;;;;;;;15.60;63.60;;;;;;6119614;23;20031;-78
2022/10/03 05:00:09;;;;;;;;;;;15.80;61.50;;;;;;6118926;23;19992;-78
2022/10/03 05:02:51;;;;;;;;;;;16.00;60.10;;;;;;6117879;23;19921;-79
2022/10/03 05:05:22;;;;;;;;;;;16.20;59.70;;;;;;6119031;23;20254;-79
2022/10/03 05:07:53;;;;;;;;;;;16.40;57.10;;;;;;6118170;23;20689;-78
2022/10/03 05:10:20;;;;;;;;;;;16.70;56.70;;;;;;6118849;23;19925;-77
2022/10/03 05:12:53;;;;;;;;;;;16.80;54.80;;;;;;6118170;23;19918;-78
2022/10/03 05:15:26;;;;;;;;;;;17.10;53.70;;;;;;6119041;23;19925;-78
2022/10/03 05:18:11;;;;;;;;;;;17.30;51.80;;;;;;6118568;23;20310;-78
2022/10/03 05:21:15;;;;;;;;;;;17.40;52.30;;;;;;6118294;23;19917;-79
2022/10/03 05:23:50;;;;;;;;;;;17.60;50.40;;;;;;6118160;23;19917;-78
2022/10/03 05:26:27;;;;;;;;;;;17.80;50.50;;;;;;6096512;23;20004;-79
2022/10/03 05:29:14;;;;;;;;;;;17.80;49.90;;;;;;6115678;23;19984;-79
2022/10/03 05:31:43;;;;;;;;;;;18.00;49.30;;;;;;6119225;23;19958;-79
2022/10/03 05:34:22;;;;;;;;;;;18.10;48.40;;;;;;6117813;23;20290;-79
2022/10/03 05:36:56;;;;;;;;;;;18.20;47.70;;;;;;6118284;23;19955;-78
2022/10/03 05:39:22;;;;;;;;;;;18.30;47.60;;;;;;6118564;23;19917;-79
2022/10/03 05:41:52;;;;;;;;;;;18.30;47.60;;;;;;6118351;23;20000;-78
2022/10/03 05:44:53;;;;;;;;;;;18.30;47.30;;;;;;6115074;23;19917;-78
2022/10/03 05:50:28;;;;;;;;;;;18.40;46.80;;;;;;6095531;23;19940;-78
2022/10/03 05:52:55;;;;;;;;;;;18.40;46.30;;;;;;6119229;23;19923;-79
2022/10/03 05:55:25;;;;;;;;;;;18.60;46.00;;;;;;6094270;23;19981;-78
2022/10/03 05:58:00;;;;;;;;;;;18.70;45.80;;;;;;6096210;23;19917;-78
2022/10/03 06:00:35;;;;;;;;;;;18.70;45.90;;;;;;6118321;23;19945;-77
2022/10/03 06:03:05;;;;;;;;;;;18.70;45.30;;;;;;6118587;23;20245;-79
2022/10/03 06:05:34;;;;;;;;;;;18.80;45.00;;;;;;6096227;23;19921;-78
2022/10/03 06:08:20;;;;;;;;;;;18.90;45.00;;;;;;6119391;23;20007;-79
2022/10/03 06:11:05;;;;;;;;;;;18.90;45.00;;;;;;6118533;23;19917;-78
2022/10/03 06:13:35;;;;;;;;;;;18.80;45.00;;;;;;6117948;23;19917;-78
2022/10/03 06:16:02;;;;;;;;;;;18.90;44.90;;;;;;6119158;23;19924;-78
2022/10/03 06:18:47;;;;;;;;;;;18.90;44.50;;;;;;6117768;23;20254;-78
2022/10/03 06:21:32;;;;;;;;;;;18.90;44.60;;;;;;6118584;23;19988;-78
2022/10/03 06:24:14;;;;;;;;;;;19.00;44.30;;;;;;6118496;23;20322;-78
2022/10/03 06:27:04;;;;;;;;;;;19.10;44.10;;;;;;6117918;23;19995;-78
2022/10/03 06:29:43;;;;;;;;;;;19.10;44.00;;;;;;6087040;23;20349;-78
2022/10/03 06:32:13;;;;;;;;;;;19.20;44.00;;;;;;6118537;23;19921;-78
2022/10/03 06:34:43;;;;;;;;;;;19.20;43.40;;;;;;6118788;23;19988;-78
2022/10/03 06:37:28;;;;;;;;;;;19.20;44.00;;;;;;6117969;23;19927;-79
2022/10/03 06:40:09;;;;;;;;;;;19.20;44.00;;;;;;6117687;23;20078;-78
2022/10/03 06:42:42;;;;;;;;;;;19.30;43.50;;;;;;6118865;23;19924;-79
2022/10/03 06:45:08;;;;;;;;;;;19.30;43.60;;;;;;6095024;23;20383;-79
2022/10/03 06:47:35;;;;;;;;;;;19.30;43.60;;;;;;6118798;23;19951;-79
2022/10/03 06:50:20;;;;;;;;;;;19.40;43.00;;;;;;6117985;23;19996;-79
2022/10/03 06:52:52;;;;;;;;;;;19.50;42.90;;;;;;6117654;23;19941;-79
2022/10/03 06:55:22;;;;;;;;;;;19.60;42.50;;;;;;6118630;23;19932;-79
2022/10/03 06:58:06;;;;;;;;;;;19.60;42.40;;;;;;6117722;23;19917;-78
2022/10/03 07:00:48;;;;;;;;;;;19.60;42.40;;;;;;6118629;23;20405;-78
2022/10/03 07:03:15;;;;;;;;;;;19.70;42.00;;;;;;6118165;23;19945;-79
2022/10/03 07:05:48;;;;;;;;;;;19.70;41.80;;;;;;6118336;23;19921;-78
2022/10/03 07:08:35;;;;;;;;;;;19.80;42.40;;;;;;6117996;23;19988;-79
2022/10/03 07:11:01;;;;;;;;;;;19.90;41.80;;;;;;6117943;23;19938;-78
2022/10/03 07:13:48;;;;;;;;;;;20.00;41.80;;;;;;6118387;23;19924;-79
2022/10/03 07:16:34;;;;;;;;;;;20.20;41.10;;;;;;6117027;23;19996;-80
2022/10/03 07:19:20;;;;;;;;;;;20.40;40.60;;;;;;6083292;23;19917;-78
2022/10/03 07:22:07;;;;;;;;;;;20.50;40.60;;;;;;6118406;23;19945;-80
2022/10/03 07:24:39;;;;;;;;;;;20.60;40.20;;;;;;6118216;23;20334;-78
2022/10/03 07:27:07;;;;;;;;;;;20.70;39.80;;;;;;6118402;23;19939;-78
2022/10/03 07:29:37;;;;;;;;;;;20.80;40.40;;;;;;6117902;23;19925;-79
2022/10/03 07:32:19;;;;;;;;;;;20.90;39.80;;;;;;6118659;23;20343;-79
2022/10/03 07:35:04;;;;;;;;;;;21.00;40.10;;;;;;6095257;23;19937;-79
2022/10/03 07:40:43;;;;;;;;;;;21.30;38.70;;;;;;6094599;23;19945;-78
2022/10/03 07:43:19;;;;;;;;;;;21.40;44.10;;;;;;6118508;23;20313;-78
2022/10/03 07:46:04;;;;;;;;;;;21.30;45.60;;;;;;6117722;23;19921;-78
2022/10/03 07:48:31;;;;;;;;;;;21.40;49.00;;;;;;6118084;23;20854;-78
2022/10/03 07:51:24;;;;;;;;;;;21.40;52.80;;;;;;6118111;23;19917;-78
2022/10/03 07:53:51;;;;;;;;;;;21.50;53.50;;;;;;6089618;23;19944;-79
2022/10/03 07:56:18;;;;;;;;;;;21.40;54.60;;;;;;6118181;23;20254;-79
2022/10/03 07:58:51;;;;;;;;;;;21.40;54.80;;;;;;6117478;23;19923;-79
2022/10/03 08:01:36;;;;;;;;;;;21.50;55.10;;;;;;6118195;23;19921;-79
2022/10/03 08:04:18;;;;;;;;;;;21.60;54.90;;;;;;6117754;23;19924;-79
2022/10/03 08:07:03;;;;;;;;;;;21.50;54.90;;;;;;6117676;23;19921;-79
2022/10/03 08:09:49;;;;;;;;;;;21.80;53.80;;;;;;6118315;23;19973;-79
2022/10/03 08:12:37;;;;;;;;;;;21.90;53.30;;;;;;6117885;23;19959;-79
2022/10/03 08:15:12;;;;;;;;;;;21.90;53.30;;;;;;6117487;23;19917;-80
2022/10/03 08:17:49;;;;;;;;;;;22.00;54.80;;;;;;6118798;23;19996;-79
2022/10/03 08:20:15;;;;;;;;;;;22.10;54.40;;;;;;6118971;23;20283;-79
2022/10/03 08:22:57;;;;;;;;;;;22.20;53.90;;;;;;6120224;23;20271;-80
2022/10/03 08:25:43;;;;;;;;;;;22.30;53.90;;;;;;6119351;23;19940;-79
2022/10/03 08:28:15;;;;;;;;;;;22.50;53.90;;;;;;6119240;23;20259;-79
2022/10/03 08:30:45;;;;;;;;;;;22.60;52.80;;;;;;6119938;23;19917;-79
2022/10/03 08:33:24;;;;;;;;;;;22.70;52.60;;;;;;6119277;23;19923;-79
2022/10/03 08:36:09;;;;;;;;;;;22.80;53.10;;;;;;6120232;23;19940;-79
2022/10/03 08:38:56;;;;;;;;;;;22.80;53.20;;;;;;6119276;23;19988;-79
2022/10/03 08:41:35;;;;;;;;;;;22.70;53.50;;;;;;6118795;23;19917;-79
2022/10/03 08:44:21;;;;;;;;;;;22.60;55.70;;;;;;6119967;23;19917;-80
2022/10/03 08:47:11;;;;;;;;;;;22.50;58.30;;;;;;6118453;23;19993;-80
2022/10/03 08:49:57;;;;;;;;;;;22.50;58.40;;;;;;6119228;23;20299;-79
2022/10/03 08:52:48;;;;;;;;;;;22.30;59.10;;;;;;6117713;23;20334;-80
2022/10/03 08:55:15;;;;;;;;;;;22.30;59.40;;;;;;6119837;23;19955;-81
2022/10/03 08:57:48;;;;;;;;;;;22.20;60.30;;;;;;6118885;23;19917;-80
2022/10/03 09:00:15;;;;;;;;;;;22.20;61.00;;;;;;6119702;23;20398;-80
2022/10/03 09:02:47;;;;;;;;;;;22.10;61.20;;;;;;6119214;23;19917;-79
2022/10/03 09:05:53;;;;;;;;;;;22.10;61.70;;;;;;6114745;23;19924;-78
2022/10/03 09:08:29;;;;;;;;;;;22.00;62.80;;;;;;6119748;23;20277;-79
2022/10/03 09:11:14;;;;;;;;;;;22.10;62.90;;;;;;6119218;23;19917;-79
2022/10/03 09:14:06;;;;;;;;;;;21.90;62.80;;;;;;6118932;23;19984;-79
2022/10/03 09:16:50;;;;;;;;;;;22.10;62.40;;;;;;6096022;23;19945;-80
2022/10/03 09:19:23;;;;;;;;;;;22.20;63.20;;;;;;6119088;23;19959;-80
2022/10/03 09:22:02;;;;;;;;;;;22.30;61.30;;;;;;6119076;23;19917;-80
2022/10/03 09:24:48;;;;;;;;;;;22.50;60.00;;;;;;6119478;23;19917;-79
2022/10/03 09:27:17;;;;;;;;;;;22.50;59.60;;;;;;6118621;23;20320;-79
2022/10/03 09:29:44;;;;;;;;;;;22.60;59.90;;;;;;6119301;23;20291;-80
2022/10/03 09:32:31;;;;;;;;;;;22.20;59.80;;;;;;6118795;23;19917;-80
2022/10/03 09:35:13;;;;;;;;;;;22.30;60.60;;;;;;6118753;23;19952;-79
2022/10/03 09:37:43;;;;;;;;;;;22.50;60.60;;;;;;6119689;23;19996;-79
2022/10/03 09:40:10;;;;;;;;;;;22.60;59.80;;;;;;6118750;23;19992;-81
2022/10/03 09:42:55;;;;;;;;;;;22.80;59.70;;;;;;6119263;23;20020;-80
2022/10/03 09:45:40;;;;;;;;;;;22.90;56.40;;;;;;6118461;23;20310;-80
2022/10/03 09:48:13;;;;;;;;;;;23.10;56.80;;;;;;6118375;23;19924;-80
2022/10/03 09:50:45;;;;;;;;;;;22.80;55.20;;;;;;6119325;23;19999;-80
2022/10/03 09:53:17;;;;;;;;;;;22.90;56.00;;;;;;6118488;23;19917;-79
2022/10/03 09:56:13;;;;;;;;;;;22.90;55.50;;;;;;6119191;23;19965;-79
2022/10/03 09:59:04;;;;;;;;;;;22.90;56.00;;;;;;6118429;23;19948;-80
2022/10/03 10:01:39;;;;;;;;;;;22.90;53.90;;;;;;6118247;23;19925;-79
2022/10/03 10:04:25;;;;;;;;;;;22.50;55.70;;;;;;6118864;23;19948;-79
2022/10/03 10:07:18;;;;;;;;;;;22.80;54.70;;;;;;6114528;23;19924;-79
2022/10/03 10:10:08;;;;;;;;;;;22.50;53.90;;;;;;6096306;23;19924;-80
2022/10/03 10:12:44;;;;;;;;;;;22.50;55.70;;;;;;6116476;23;20335;-79
2022/10/03 10:15:29;;;;;;;;;;;22.60;56.30;;;;;;6095576;23;19917;-80
2022/10/03 10:18:02;;;;;;;;;;;22.70;57.30;;;;;;6096219;23;19917;-79
2022/10/03 10:20:46;;;;;;;;;;;22.90;56.40;;;;;;6117727;23;19917;-80
2022/10/03 10:23:16;;;;;;;;;;;23.10;57.00;;;;;;6095463;23;20228;-80
2022/10/03 10:25:52;;;;;;;;;;;23.20;53.90;;;;;;6118890;23;19917;-80
2022/10/03 10:28:30;;;;;;;;;;;23.10;55.40;;;;;;6095178;23;19993;-80
2022/10/03 10:30:57;;;;;;;;;;;23.20;55.60;;;;;;6119246;23;19949;-80
2022/10/03 10:33:40;;;;;;;;;;;23.50;54.00;;;;;;6118350;23;19917;-80
2022/10/03 10:36:13;;;;;;;;;;;23.60;53.50;;;;;;6095928;23;19959;-82
2022/10/03 10:39:09;;;;;;;;;;;23.60;53.20;;;;;;6118434;23;19921;-80
2022/10/03 10:41:38;;;;;;;;;;;23.40;52.30;;;;;;6118144;23;19996;-80
2022/10/03 10:44:18;;;;;;;;;;;23.60;53.40;;;;;;6118980;23;19949;-80
2022/10/03 10:46:57;;;;;;;;;;;23.70;52.70;;;;;;6117793;23;19921;-80
2022/10/03 10:49:26;;;;;;;;;;;23.90;51.50;;;;;;6117628;23;19918;-80
2022/10/03 10:52:02;;;;;;;;;;;24.10;48.80;;;;;;6118973;23;19917;-80
2022/10/03 10:54:47;;;;;;;;;;;24.30;48.40;;;;;;6117873;23;19991;-80
2022/10/03 10:57:33;;;;;;;;;;;24.40;47.00;;;;;;6118608;23;20332;-80
2022/10/03 11:00:18;;;;;;;;;;;24.50;47.20;;;;;;6095541;23;20343;-80
2022/10/03 11:02:45;;;;;;;;;;;24.60;47.50;;;;;;6117999;23;19952;-79
2022/10/03 11:05:21;;;;;;;;;;;24.50;48.50;;;;;;6118411;23;19921;-80
2022/10/03 11:08:11;;;;;;;;;;;24.60;49.50;;;;;;6117971;23;19939;-80
2022/10/03 11:10:47;;;;;;;;;;;24.90;48.70;;;;;;6115089;23;20245;-80
2022/10/03 11:13:19;;;;;;;;;;;25.00;48.30;;;;;;6118161;23;19924;-80
2022/10/03 11:16:05;;;;;;;;;;;25.10;46.70;;;;;;6117322;23;19921;-79
2022/10/03 11:18:50;;;;;;;;;;;24.50;48.10;;;;;;6117955;23;19996;-80
2022/10/03 11:21:17;;;;;;;;;;;24.80;47.40;;;;;;6117272;23;19927;-79
2022/10/03 11:23:56;;;;;;;;;;;25.00;47.00;;;;;;6118282;23;19917;-80
2022/10/03 11:26:41;;;;;;;;;;;25.20;44.80;;;;;;6117577;23;19944;-81
2022/10/03 11:29:09;;;;;;;;;;;25.30;43.50;;;;;;6117663;23;19924;-80
2022/10/03 11:31:54;;;;;;;;;;;25.30;43.80;;;;;;6117955;23;19955;-80
2022/10/03 11:34:21;;;;;;;;;;;25.30;45.00;;;;;;6117619;23;19992;-80
2022/10/03 11:37:07;;;;;;;;;;;25.50;42.90;;;;;;6118020;23;19966;-80
2022/10/03 11:39:41;;;;;;;;;;;25.50;43.90;;;;;;6117248;23;20360;-80
2022/10/03 11:42:21;;;;;;;;;;;25.50;42.00;;;;;;6118428;23;19917;-81
2022/10/03 11:44:59;;;;;;;;;;;25.30;42.50;;;;;;6118002;23;19936;-80
2022/10/03 11:47:29;;;;;;;;;;;25.40;43.60;;;;;;6117582;23;20257;-80
2022/10/03 11:49:59;;;;;;;;;;;25.60;43.40;;;;;;6118423;23;19988;-81
2022/10/03 11:52:34;;;;;;;;;;;26.00;42.50;;;;;;6117267;23;20253;-79
2022/10/03 11:55:13;;;;;;;;;;;25.60;42.80;;;;;;6119811;23;20362;-79
2022/10/03 11:57:42;;;;;;;;;;;25.70;42.70;;;;;;6118114;23;19928;-80
2022/10/03 12:00:17;;;;;;;;;;;25.70;43.50;;;;;;6119921;23;19948;-80
2022/10/03 12:03:03;;;;;;;;;;;25.50;43.20;;;;;;6096207;23;19921;-80
2022/10/03 12:05:38;;;;;;;;;;;25.70;46.20;;;;;;6117948;23;19921;-80
2022/10/03 12:11:16;;;;;;;;;;;25.70;43.60;;;;;;6096211;23;19992;-79
2022/10/03 12:14:02;;;;;;;;;;;25.90;43.40;;;;;;6119938;23;20393;-80
2022/10/03 12:16:36;;;;;;;;;;;25.90;42.20;;;;;;6117619;23;19921;-80
2022/10/03 12:19:14;;;;;;;;;;;26.20;41.40;;;;;;6097261;23;19921;-80
2022/10/03 12:21:53;;;;;;;;;;;26.40;41.50;;;;;;6118742;23;19917;-80
2022/10/03 12:24:27;;;;;;;;;;;26.60;42.40;;;;;;6118409;23;19921;-81
2022/10/03 12:26:57;;;;;;;;;;;26.90;40.50;;;;;;6119830;23;19924;-81
2022/10/03 12:29:25;;;;;;;;;;;26.90;41.20;;;;;;6119394;23;19917;-80
2022/10/03 12:31:57;;;;;;;;;;;27.00;39.20;;;;;;6119816;23;19928;-80
2022/10/03 12:34:24;;;;;;;;;;;26.70;41.00;;;;;;6118684;23;19917;-79
2022/10/03 12:36:57;;;;;;;;;;;26.50;40.30;;;;;;6119890;23;19987;-79
2022/10/03 12:39:24;;;;;;;;;;;26.80;40.60;;;;;;6119200;23;20279;-80
2022/10/03 12:42:19;;;;;;;;;;;26.90;40.80;;;;;;6119752;23;19917;-80
2022/10/03 12:44:45;;;;;;;;;;;26.70;41.00;;;;;;6119225;23;19917;-80
2022/10/03 12:47:25;;;;;;;;;;;27.20;41.00;;;;;;6120020;23;19976;-80
2022/10/03 12:50:22;;;;;;;;;;;26.70;38.80;;;;;;6115235;23;20339;-80
2022/10/03 12:53:12;;;;;;;;;;;26.40;38.90;;;;;;6095942;23;20362;-80
2022/10/03 12:55:44;;;;;;;;;;;26.40;38.10;;;;;;6096885;23;20254;-79
2022/10/03 12:58:11;;;;;;;;;;;26.60;39.40;;;;;;6119240;23;19917;-80
2022/10/03 13:00:47;;;;;;;;;;;26.50;39.80;;;;;;6119792;23;19917;-80
2022/10/03 13:03:14;;;;;;;;;;;26.50;39.70;;;;;;6119004;23;19923;-80
2022/10/03 13:05:59;;;;;;;;;;;26.80;39.20;;;;;;6119166;23;19957;-80
2022/10/03 13:08:38;;;;;;;;;;;26.90;39.00;;;;;;6117707;23;19976;-80
2022/10/03 13:11:13;;;;;;;;;;;27.00;39.70;;;;;;6119829;23;19977;-80
2022/10/03 13:13:55;;;;;;;;;;;26.80;38.80;;;;;;6119069;23;19921;-80
2022/10/03 13:16:30;;;;;;;;;;;26.70;40.10;;;;;;6118955;23;19917;-80
2022/10/03 13:19:04;;;;;;;;;;;27.10;39.00;;;;;;6119239;23;19917;-80
2022/10/03 13:21:33;;;;;;;;;;;27.40;37.50;;;;;;6118394;23;19932;-80
2022/10/03 13:24:46;;;;;;;;;;;27.50;37.50;;;;;;6095464;23;20418;-80
2022/10/03 13:27:23;;;;;;;;;;;27.50;37.40;;;;;;6091068;23;19988;-80
2022/10/03 13:29:54;;;;;;;;;;;27.60;36.60;;;;;;6117723;23;19921;-80
2022/10/03 13:32:23;;;;;;;;;;;27.40;37.20;;;;;;6094660;23;19924;-80
2022/10/03 13:34:50;;;;;;;;;;;27.30;37.90;;;;;;6118817;23;19992;-80
2022/10/03 13:37:28;;;;;;;;;;;27.40;37.30;;;;;;6119065;23;19921;-79
2022/10/03 13:40:00;;;;;;;;;;;27.60;37.20;;;;;;6117826;23;19917;-80
2022/10/03 13:42:37;;;;;;;;;;;27.60;36.90;;;;;;6117597;23;20235;-80
2022/10/03 13:45:16;;;;;;;;;;;27.90;36.70;;;;;;6116009;23;20349;-80
2022/10/03 13:47:45;;;;;;;;;;;27.40;36.40;;;;;;6092105;23;19992;-81
2022/10/03 13:50:25;;;;;;;;;;;27.40;37.50;;;;;;6115947;23;20346;-80
2022/10/03 13:53:00;;;;;;;;;;;27.70;36.70;;;;;;6115214;23;19996;-80
2022/10/03 13:56:08;;;;;;;0.10;0.10;;;27.10;36.50;;;;;;6115881;23;19947;-80
2022/10/03 13:58:55;;;;;;;0.00;0.00;;;26.90;36.90;;;;;;6033146;23;20088;-80
2022/10/03 14:01:35;;;;;;;0.80;0.00;;;27.00;37.70;;;;;;6088612;23;20035;-80
2022/10/03 14:04:14;;;;;;;;;;;27.00;37.50;;;;;;6116361;23;20034;-80
2022/10/03 14:06:45;;;;;;;;;;;27.30;38.10;;;;;;6114970;23;19936;-80
2022/10/03 14:09:31;;;;;;;;;;;27.10;36.50;;;;;;6116564;23;20184;-80
2022/10/03 14:11:58;;;;;;;;;;;27.20;37.70;;;;;;6093510;23;19993;-80
2022/10/03 14:14:33;;;;;;;;;;;27.20;37.00;;;;;;6116343;23;19927;-81
2022/10/03 14:17:13;;;;;;;;;;;27.10;37.50;;;;;;6113594;23;20008;-80
2022/10/03 14:19:47;;;;;;;;;;;27.00;37.40;;;;;;6090891;23;19921;-81
2022/10/03 14:22:25;;;;;;;;;;;26.90;39.10;;;;;;6115622;23;19992;-80
2022/10/03 14:24:52;;;;;;;;;;;26.70;37.90;;;;;;6092672;23;19941;-80
2022/10/03 14:27:38;;;;;;;;;;;26.80;38.90;;;;;;6116612;23;20262;-80
2022/10/03 14:30:20;;;;;;;;;;;27.00;38.30;;;;;;6116871;23;19927;-80
2022/10/03 14:32:50;;;;;;;;;;;26.90;38.70;;;;;;6116693;23;19924;-79
2022/10/03 14:35:16;;;;;;;;;;;26.80;38.10;;;;;;6118319;23;19968;-79
2022/10/03 14:37:53;;;;;;;;;;;26.90;38.70;;;;;;6118106;23;19988;-80
2022/10/03 14:40:39;;;;;;;;;;;26.90;38.10;;;;;;6118476;23;19921;-79
2022/10/03 14:43:06;;;;;;;;;;;26.60;38.30;;;;;;6117832;23;19992;-79
2022/10/03 14:45:37;;;;;;;;;;;26.60;38.90;;;;;;6117864;23;20362;-79
2022/10/03 14:48:07;;;;;;;;;;;26.50;37.50;;;;;;6093172;23;19917;-79
2022/10/03 14:50:37;;;;;;;;;;;26.20;38.90;;;;;;6118379;23;19941;-80
2022/10/03 14:53:07;;;;;;;;;;;26.20;39.10;;;;;;6093008;23;19917;-79
2022/10/03 14:55:57;;;;;;;;;;;26.10;39.00;;;;;;6118045;23;19917;-79
2022/10/03 14:58:28;;;;;;;;;;;26.00;38.80;;;;;;6094735;23;19996;-80
2022/10/03 15:01:02;;;;;;;;;;;26.10;38.50;;;;;;6095905;23;20002;-79
2022/10/03 15:03:32;;;;;;;;;;;26.20;38.80;;;;;;6117991;23;19939;-80
2022/10/03 15:06:01;;;;;;;;;;;26.30;38.50;;;;;;6118178;23;19917;-79
2022/10/03 15:08:31;;;;;;;;;;;26.40;37.80;;;;;;6117442;23;20000;-79
2022/10/03 15:10:59;;;;;;;;;;;26.30;38.40;;;;;;6118389;23;19956;-80
2022/10/03 15:13:26;;;;;;;;;;;26.30;38.20;;;;;;6093678;23;20234;-80
2022/10/03 15:15:55;;;;;;;;;;;26.30;37.80;;;;;;6118437;23;19996;-79
2022/10/03 15:18:23;;;;;;;;;;;26.30;37.90;;;;;;6117788;23;19918;-79
2022/10/03 15:20:53;;;;;;;;;;;26.30;37.50;;;;;;6118208;23;19921;-80
2022/10/03 15:23:41;;;;;;;;;;;26.30;37.30;;;;;;6117259;23;19921;-80
2022/10/03 15:26:11;;;;;;;;;;;26.30;37.60;;;;;;6093343;23;19984;-80
2022/10/03 15:28:44;;;;;;;0.00;0.00;;;26.50;37.60;;;;;;6117318;23;19943;-79